CES5122 ZBAA-ZSSS
Flight info
| Callsign | CES5122 |
|---|---|
| Flight time | 1h 34m |
| Altitude | 33100 |
| Route | ELKUR9Z ELKUR W40 YQG W142 DALIM A593 DPX A470 DALNU W166 ZJ W167 SASAN R343 PK |
| Aircraft | A339/H-SADE1E2E3GHIJ3J5M1P2RWXY/LB2D1 |
Departure
| Time | 2026-05-07 12:22 |
|---|---|
| Airport | Beijing Capital International Airport (ZBAA) |
Arrival
| Time | 2026-05-07 13:57 |
|---|---|
| Airport | Shanghai Hongqiao International Airport (ZSSS) |
| Time | Latitude | Longitude | Altitude | Speed | Heading |
|---|---|---|---|---|---|
| 2026-05-07 11:32 | 40.07889 | 116.59032 | 132 ft | 0 kts | 264° |
| 2026-05-07 12:04 | 40.07889 | 116.59033 | 132 ft | 1 kts | 264° |
| 2026-05-07 12:04 | 40.07890 | 116.59052 | 132 ft | 2 kts | 264° |
| 2026-05-07 12:04 | 40.07892 | 116.59073 | 132 ft | 2 kts | 264° |
| 2026-05-07 12:04 | 40.07893 | 116.59092 | 132 ft | 2 kts | 264° |
| 2026-05-07 12:05 | 40.07895 | 116.59112 | 132 ft | 2 kts | 264° |
| 2026-05-07 12:05 | 40.07896 | 116.59132 | 132 ft | 2 kts | 264° |
| 2026-05-07 12:05 | 40.07898 | 116.59151 | 132 ft | 2 kts | 264° |
| 2026-05-07 12:05 | 40.07899 | 116.59170 | 132 ft | 2 kts | 264° |
| 2026-05-07 12:06 | 40.07901 | 116.59190 | 132 ft | 2 kts | 264° |
| 2026-05-07 12:06 | 40.07902 | 116.59202 | 132 ft | 2 kts | 264° |
| 2026-05-07 12:06 | 40.07907 | 116.59219 | 132 ft | 2 kts | 225° |
| 2026-05-07 12:06 | 40.07919 | 116.59230 | 132 ft | 2 kts | 193° |
| 2026-05-07 12:07 | 40.07928 | 116.59231 | 132 ft | 0 kts | 173° |
| 2026-05-07 12:07 | 40.07933 | 116.59230 | 132 ft | 0 kts | 173° |
| 2026-05-07 12:12 | 40.07919 | 116.59232 | 132 ft | 4 kts | 173° |
| 2026-05-07 12:12 | 40.07874 | 116.59239 | 132 ft | 8 kts | 173° |
| 2026-05-07 12:13 | 40.07812 | 116.59255 | 132 ft | 8 kts | 155° |
| 2026-05-07 12:13 | 40.07780 | 116.59322 | 132 ft | 7 kts | 116° |
| 2026-05-07 12:13 | 40.07731 | 116.59371 | 132 ft | 10 kts | 161° |
| 2026-05-07 12:13 | 40.07647 | 116.59391 | 132 ft | 13 kts | 174° |
| 2026-05-07 12:14 | 40.07540 | 116.59407 | 132 ft | 16 kts | 173° |
| 2026-05-07 12:14 | 40.07457 | 116.59421 | 132 ft | 7 kts | 171° |
| 2026-05-07 12:14 | 40.07399 | 116.59452 | 132 ft | 10 kts | 150° |
| 2026-05-07 12:14 | 40.07320 | 116.59496 | 132 ft | 13 kts | 169° |
| 2026-05-07 12:15 | 40.07291 | 116.59502 | 132 ft | 1 kts | 173° |
| 2026-05-07 12:15 | 40.07261 | 116.59508 | 132 ft | 6 kts | 173° |
| 2026-05-07 12:15 | 40.07200 | 116.59518 | 132 ft | 10 kts | 173° |
| 2026-05-07 12:15 | 40.07114 | 116.59532 | 132 ft | 14 kts | 173° |
| 2026-05-07 12:16 | 40.07007 | 116.59549 | 132 ft | 16 kts | 174° |
| 2026-05-07 12:16 | 40.06880 | 116.59566 | 132 ft | 19 kts | 175° |
| 2026-05-07 12:16 | 40.06742 | 116.59589 | 132 ft | 21 kts | 174° |
| 2026-05-07 12:16 | 40.06589 | 116.59613 | 132 ft | 22 kts | 173° |
| 2026-05-07 12:17 | 40.06426 | 116.59638 | 132 ft | 24 kts | 173° |
| 2026-05-07 12:17 | 40.06255 | 116.59666 | 132 ft | 25 kts | 173° |
| 2026-05-07 12:17 | 40.06078 | 116.59695 | 132 ft | 26 kts | 174° |
| 2026-05-07 12:17 | 40.05900 | 116.59721 | 132 ft | 25 kts | 173° |
| 2026-05-07 12:18 | 40.05726 | 116.59749 | 132 ft | 24 kts | 174° |
| 2026-05-07 12:18 | 40.05580 | 116.59772 | 132 ft | 18 kts | 173° |
| 2026-05-07 12:18 | 40.05497 | 116.59786 | 132 ft | 6 kts | 162° |
| 2026-05-07 12:18 | 40.05476 | 116.59834 | 132 ft | 6 kts | 95° |
| 2026-05-07 12:19 | 40.05478 | 116.59856 | 132 ft | 0 kts | 79° |
| 2026-05-07 12:20 | 40.05478 | 116.59857 | 132 ft | 0 kts | 79° |
| 2026-05-07 12:20 | 40.05482 | 116.59873 | 132 ft | 3 kts | 69° |
| 2026-05-07 12:20 | 40.05504 | 116.59919 | 132 ft | 7 kts | 51° |
| 2026-05-07 12:20 | 40.05551 | 116.59977 | 132 ft | 10 kts | 40° |
| 2026-05-07 12:21 | 40.05622 | 116.60004 | 132 ft | 11 kts | 356° |
| 2026-05-07 12:21 | 40.05758 | 116.59982 | 132 ft | 43 kts | 353° |
| 2026-05-07 12:21 | 40.06278 | 116.59901 | 132 ft | 106 kts | 353° |
| 2026-05-07 12:21 | 40.07206 | 116.59751 | 135 ft | 157 kts | 350° |
| 2026-05-07 12:22 | 40.08311 | 116.59552 | 584 ft | 164 kts | 352° |
| 2026-05-07 12:22 | 40.09439 | 116.59367 | 1198 ft | 164 kts | 353° |
| 2026-05-07 12:22 | 40.10563 | 116.59199 | 1841 ft | 164 kts | 354° |
| 2026-05-07 12:22 | 40.11720 | 116.59031 | 2274 ft | 178 kts | 354° |
| 2026-05-07 12:23 | 40.13023 | 116.58818 | 2603 ft | 199 kts | 353° |
| 2026-05-07 12:23 | 40.14486 | 116.58556 | 2892 ft | 224 kts | 353° |
| 2026-05-07 12:23 | 40.16119 | 116.58263 | 3289 ft | 245 kts | 353° |
| 2026-05-07 12:23 | 40.17833 | 116.58023 | 4043 ft | 250 kts | 354° |
| 2026-05-07 12:24 | 40.19540 | 116.57793 | 4892 ft | 251 kts | 354° |
| 2026-05-07 12:24 | 40.21272 | 116.57551 | 5704 ft | 252 kts | 355° |
| 2026-05-07 12:24 | 40.23009 | 116.57843 | 6462 ft | 259 kts | 20° |
| 2026-05-07 12:24 | 40.24500 | 116.59187 | 7251 ft | 268 kts | 45° |
| 2026-05-07 12:25 | 40.25418 | 116.61330 | 7952 ft | 281 kts | 71° |
| 2026-05-07 12:25 | 40.25701 | 116.63868 | 8675 ft | 288 kts | 79° |
| 2026-05-07 12:25 | 40.25910 | 116.66486 | 9435 ft | 292 kts | 80° |
| 2026-05-07 12:25 | 40.26124 | 116.69130 | 10156 ft | 295 kts | 79° |
| 2026-05-07 12:26 | 40.26351 | 116.71829 | 10680 ft | 305 kts | 79° |
| 2026-05-07 12:26 | 40.26600 | 116.74668 | 11034 ft | 322 kts | 79° |
| 2026-05-07 12:26 | 40.26862 | 116.77633 | 11335 ft | 340 kts | 79° |
| 2026-05-07 12:26 | 40.27139 | 116.80794 | 11694 ft | 357 kts | 79° |
| 2026-05-07 12:27 | 40.27423 | 116.84055 | 12223 ft | 366 kts | 79° |
| 2026-05-07 12:27 | 40.27703 | 116.87345 | 12978 ft | 368 kts | 78° |
| 2026-05-07 12:27 | 40.27988 | 116.90687 | 13715 ft | 371 kts | 78° |
| 2026-05-07 12:27 | 40.28277 | 116.94039 | 14439 ft | 374 kts | 78° |
| 2026-05-07 12:28 | 40.28341 | 116.97490 | 15116 ft | 388 kts | 94° |
| 2026-05-07 12:28 | 40.27401 | 117.00829 | 15754 ft | 405 kts | 118° |
| 2026-05-07 12:28 | 40.25485 | 117.03561 | 16427 ft | 416 kts | 143° |
| 2026-05-07 12:28 | 40.22874 | 117.05171 | 17085 ft | 421 kts | 167° |
| 2026-05-07 12:29 | 40.19951 | 117.05614 | 17740 ft | 422 kts | 179° |
| 2026-05-07 12:29 | 40.17031 | 117.05757 | 18367 ft | 427 kts | 180° |
| 2026-05-07 12:29 | 40.14050 | 117.05880 | 19006 ft | 432 kts | 180° |
| 2026-05-07 12:29 | 40.11041 | 117.06007 | 19612 ft | 436 kts | 180° |
| 2026-05-07 12:30 | 40.07968 | 117.06145 | 20241 ft | 440 kts | 180° |
| 2026-05-07 12:30 | 40.04901 | 117.06290 | 20833 ft | 444 kts | 180° |
| 2026-05-07 12:30 | 40.01819 | 117.06438 | 21403 ft | 449 kts | 180° |
| 2026-05-07 12:30 | 39.98695 | 117.06590 | 21966 ft | 452 kts | 181° |
| 2026-05-07 12:31 | 39.95507 | 117.06746 | 22516 ft | 456 kts | 181° |
| 2026-05-07 12:31 | 39.92347 | 117.06902 | 23090 ft | 458 kts | 181° |
| 2026-05-07 12:31 | 39.89168 | 117.07061 | 23816 ft | 456 kts | 181° |
| 2026-05-07 12:31 | 39.85979 | 117.07220 | 24338 ft | 458 kts | 181° |
| 2026-05-07 12:32 | 39.82799 | 117.07378 | 24771 ft | 462 kts | 181° |
| 2026-05-07 12:32 | 39.79553 | 117.07538 | 25195 ft | 465 kts | 182° |
| 2026-05-07 12:32 | 39.76317 | 117.07697 | 25606 ft | 468 kts | 182° |
| 2026-05-07 12:32 | 39.73056 | 117.07858 | 26007 ft | 471 kts | 182° |
| 2026-05-07 12:33 | 39.66491 | 117.08183 | 26835 ft | 475 kts | 182° |
| 2026-05-07 12:33 | 39.63202 | 117.08344 | 27194 ft | 478 kts | 183° |
| 2026-05-07 12:33 | 39.59865 | 117.08508 | 27547 ft | 480 kts | 183° |
| 2026-05-07 12:34 | 39.56517 | 117.08672 | 27887 ft | 483 kts | 183° |
| 2026-05-07 12:34 | 39.53144 | 117.08838 | 28238 ft | 486 kts | 183° |
| 2026-05-07 12:34 | 39.49769 | 117.09003 | 28586 ft | 488 kts | 184° |
| 2026-05-07 12:34 | 39.46393 | 117.09169 | 28933 ft | 490 kts | 184° |
| 2026-05-07 12:35 | 39.42963 | 117.09337 | 29288 ft | 492 kts | 184° |
| 2026-05-07 12:35 | 39.39553 | 117.09502 | 29633 ft | 493 kts | 184° |
| 2026-05-07 12:35 | 39.36139 | 117.09670 | 29952 ft | 496 kts | 185° |
| 2026-05-07 12:35 | 39.32698 | 117.09837 | 30267 ft | 498 kts | 185° |
| 2026-05-07 12:36 | 39.29224 | 117.10008 | 30573 ft | 500 kts | 185° |
| 2026-05-07 12:36 | 39.25744 | 117.10180 | 30897 ft | 501 kts | 186° |
| 2026-05-07 12:36 | 39.22239 | 117.10350 | 31239 ft | 502 kts | 186° |
| 2026-05-07 12:36 | 39.18773 | 117.10519 | 31602 ft | 502 kts | 186° |
| 2026-05-07 12:37 | 39.15301 | 117.10689 | 31968 ft | 502 kts | 186° |
| 2026-05-07 12:37 | 39.11783 | 117.10860 | 32271 ft | 503 kts | 187° |
| 2026-05-07 12:37 | 39.08306 | 117.11031 | 32581 ft | 504 kts | 187° |
| 2026-05-07 12:37 | 39.04791 | 117.11200 | 32922 ft | 504 kts | 187° |
| 2026-05-07 12:38 | 39.01292 | 117.11368 | 33172 ft | 506 kts | 187° |
| 2026-05-07 12:38 | 38.97764 | 117.11533 | 33199 ft | 507 kts | 187° |
| 2026-05-07 12:38 | 38.90691 | 117.11871 | 33190 ft | 508 kts | 187° |
| 2026-05-07 12:39 | 38.83633 | 117.12213 | 33197 ft | 508 kts | 188° |
| 2026-05-07 12:39 | 38.76623 | 117.12553 | 33201 ft | 507 kts | 188° |
| 2026-05-07 12:40 | 38.69569 | 117.12893 | 33200 ft | 506 kts | 188° |
| 2026-05-07 12:40 | 38.62534 | 117.13229 | 33200 ft | 506 kts | 188° |
| 2026-05-07 12:41 | 38.55558 | 117.13566 | 33204 ft | 503 kts | 189° |
| 2026-05-07 12:41 | 38.48537 | 117.13898 | 33205 ft | 503 kts | 189° |
| 2026-05-07 12:42 | 38.41573 | 117.14229 | 33207 ft | 504 kts | 189° |
| 2026-05-07 12:42 | 38.34570 | 117.14563 | 33204 ft | 502 kts | 190° |
| 2026-05-07 12:43 | 38.27597 | 117.14890 | 33208 ft | 503 kts | 190° |
| 2026-05-07 12:43 | 38.20654 | 117.15225 | 33213 ft | 500 kts | 191° |
| 2026-05-07 12:44 | 38.13696 | 117.15552 | 33216 ft | 499 kts | 191° |
| 2026-05-07 12:44 | 38.06790 | 117.15873 | 33213 ft | 500 kts | 191° |
| 2026-05-07 12:45 | 37.99824 | 117.16206 | 33216 ft | 497 kts | 191° |
| 2026-05-07 12:45 | 37.92903 | 117.16527 | 33222 ft | 498 kts | 191° |
| 2026-05-07 12:46 | 37.86013 | 117.16855 | 33219 ft | 493 kts | 191° |
| 2026-05-07 12:46 | 37.79187 | 117.17178 | 33229 ft | 491 kts | 192° |
| 2026-05-07 12:47 | 37.72385 | 117.17487 | 33227 ft | 492 kts | 192° |
| 2026-05-07 12:47 | 37.65533 | 117.17809 | 33233 ft | 491 kts | 192° |
| 2026-05-07 12:48 | 37.58720 | 117.18131 | 33234 ft | 487 kts | 192° |
| 2026-05-07 12:48 | 37.51984 | 117.18446 | 33236 ft | 487 kts | 192° |
| 2026-05-07 12:49 | 37.45234 | 117.18758 | 33242 ft | 487 kts | 192° |
| 2026-05-07 12:49 | 37.38456 | 117.19071 | 33246 ft | 485 kts | 192° |
| 2026-05-07 12:50 | 37.31708 | 117.19383 | 33249 ft | 485 kts | 192° |
| 2026-05-07 12:50 | 37.25019 | 117.19699 | 33251 ft | 479 kts | 192° |
| 2026-05-07 12:51 | 37.18350 | 117.20001 | 33253 ft | 483 kts | 192° |
| 2026-05-07 12:51 | 37.11626 | 117.20307 | 33256 ft | 481 kts | 192° |
| 2026-05-07 12:52 | 37.04935 | 117.20617 | 33255 ft | 479 kts | 192° |
| 2026-05-07 12:52 | 36.98296 | 117.20926 | 33259 ft | 478 kts | 192° |
| 2026-05-07 12:53 | 36.91697 | 117.21229 | 33262 ft | 475 kts | 192° |
| 2026-05-07 12:53 | 36.85118 | 117.21536 | 33262 ft | 474 kts | 192° |
| 2026-05-07 12:54 | 36.78533 | 117.21584 | 33260 ft | 472 kts | 194° |
| 2026-05-07 12:54 | 36.71957 | 117.21532 | 33262 ft | 471 kts | 194° |
| 2026-05-07 12:55 | 36.65440 | 117.21491 | 33262 ft | 469 kts | 194° |
| 2026-05-07 12:55 | 36.58908 | 117.21447 | 33266 ft | 471 kts | 194° |
| 2026-05-07 12:56 | 36.52381 | 117.21403 | 33272 ft | 468 kts | 193° |
| 2026-05-07 12:56 | 36.45846 | 117.21603 | 33271 ft | 478 kts | 189° |
| 2026-05-07 12:57 | 36.39167 | 117.22670 | 33269 ft | 490 kts | 182° |
| 2026-05-07 12:57 | 36.32460 | 117.24718 | 33268 ft | 500 kts | 175° |
| 2026-05-07 12:58 | 36.25792 | 117.27225 | 33267 ft | 503 kts | 175° |
| 2026-05-07 12:58 | 36.19092 | 117.29736 | 33265 ft | 499 kts | 175° |
| 2026-05-07 12:59 | 36.12502 | 117.32185 | 33265 ft | 498 kts | 175° |
| 2026-05-07 12:59 | 36.05844 | 117.34650 | 33266 ft | 496 kts | 175° |
| 2026-05-07 13:00 | 35.99213 | 117.37095 | 33264 ft | 498 kts | 174° |
| 2026-05-07 13:00 | 35.92619 | 117.39555 | 33263 ft | 497 kts | 174° |
| 2026-05-07 13:01 | 35.85983 | 117.42038 | 33263 ft | 498 kts | 174° |
| 2026-05-07 13:01 | 35.79375 | 117.44505 | 33264 ft | 496 kts | 174° |
| 2026-05-07 13:02 | 35.72765 | 117.46970 | 33264 ft | 495 kts | 174° |
| 2026-05-07 13:02 | 35.66208 | 117.49408 | 33263 ft | 496 kts | 174° |
| 2026-05-07 13:03 | 35.59589 | 117.51866 | 33264 ft | 497 kts | 174° |
| 2026-05-07 13:03 | 35.52981 | 117.54316 | 33265 ft | 497 kts | 173° |
| 2026-05-07 13:04 | 35.46331 | 117.56782 | 33265 ft | 497 kts | 173° |
| 2026-05-07 13:04 | 35.39749 | 117.59216 | 33262 ft | 496 kts | 173° |
| 2026-05-07 13:05 | 35.33122 | 117.61663 | 33262 ft | 496 kts | 173° |
| 2026-05-07 13:05 | 35.26530 | 117.64090 | 33264 ft | 496 kts | 173° |
| 2026-05-07 13:06 | 35.19930 | 117.66521 | 33254 ft | 494 kts | 173° |
| 2026-05-07 13:06 | 35.13358 | 117.68937 | 33264 ft | 494 kts | 173° |
| 2026-05-07 13:07 | 35.06757 | 117.71351 | 33263 ft | 496 kts | 173° |
| 2026-05-07 13:07 | 35.00158 | 117.73766 | 33266 ft | 495 kts | 173° |
| 2026-05-07 13:08 | 34.93617 | 117.76163 | 33261 ft | 494 kts | 173° |
| 2026-05-07 13:08 | 34.87010 | 117.78579 | 33265 ft | 494 kts | 173° |
| 2026-05-07 13:09 | 34.80446 | 117.80979 | 33265 ft | 493 kts | 173° |
| 2026-05-07 13:09 | 34.73863 | 117.83347 | 33267 ft | 493 kts | 173° |
| 2026-05-07 13:10 | 34.67320 | 117.85694 | 33271 ft | 492 kts | 173° |
| 2026-05-07 13:10 | 34.60724 | 117.88062 | 33270 ft | 493 kts | 173° |
| 2026-05-07 13:11 | 34.54160 | 117.90417 | 33272 ft | 493 kts | 173° |
| 2026-05-07 13:11 | 34.47579 | 117.92772 | 33270 ft | 493 kts | 173° |
| 2026-05-07 13:12 | 34.41009 | 117.95122 | 33266 ft | 494 kts | 173° |
| 2026-05-07 13:12 | 34.34448 | 117.97470 | 33266 ft | 492 kts | 172° |
| 2026-05-07 13:13 | 34.27856 | 117.99819 | 33267 ft | 492 kts | 172° |
| 2026-05-07 13:13 | 34.21326 | 118.02185 | 33265 ft | 494 kts | 172° |
| 2026-05-07 13:14 | 34.14761 | 118.04580 | 33264 ft | 494 kts | 172° |
| 2026-05-07 13:14 | 34.08195 | 118.06973 | 33261 ft | 494 kts | 172° |
| 2026-05-07 13:15 | 34.01606 | 118.09367 | 33259 ft | 494 kts | 172° |
| 2026-05-07 13:15 | 33.95042 | 118.11758 | 33258 ft | 492 kts | 172° |
| 2026-05-07 13:16 | 33.88497 | 118.14175 | 33263 ft | 496 kts | 170° |
| 2026-05-07 13:16 | 33.82053 | 118.17261 | 33267 ft | 504 kts | 163° |
| 2026-05-07 13:17 | 33.75827 | 118.21298 | 33257 ft | 512 kts | 155° |
| 2026-05-07 13:17 | 33.69925 | 118.26094 | 33251 ft | 514 kts | 152° |
| 2026-05-07 13:18 | 33.64050 | 118.31017 | 33245 ft | 515 kts | 152° |
| 2026-05-07 13:18 | 33.58189 | 118.35898 | 33244 ft | 513 kts | 152° |
| 2026-05-07 13:19 | 33.52308 | 118.40771 | 33239 ft | 515 kts | 152° |
| 2026-05-07 13:19 | 33.46449 | 118.45617 | 33241 ft | 514 kts | 152° |
| 2026-05-07 13:20 | 33.40567 | 118.50470 | 33238 ft | 514 kts | 152° |
| 2026-05-07 13:20 | 33.34694 | 118.55309 | 33240 ft | 514 kts | 152° |
| 2026-05-07 13:21 | 33.28824 | 118.60144 | 33244 ft | 513 kts | 152° |
| 2026-05-07 13:21 | 33.22926 | 118.64988 | 33245 ft | 513 kts | 152° |
| 2026-05-07 13:22 | 33.17089 | 118.69801 | 33241 ft | 513 kts | 152° |
| 2026-05-07 13:22 | 33.11246 | 118.74653 | 33242 ft | 513 kts | 152° |
| 2026-05-07 13:23 | 33.05393 | 118.79506 | 33242 ft | 514 kts | 152° |
| 2026-05-07 13:23 | 32.99493 | 118.84392 | 33241 ft | 514 kts | 152° |
| 2026-05-07 13:24 | 32.93647 | 118.89225 | 33240 ft | 514 kts | 152° |
| 2026-05-07 13:24 | 32.87801 | 118.94054 | 33246 ft | 513 kts | 152° |
| 2026-05-07 13:25 | 32.84845 | 118.96487 | 33017 ft | 514 kts | 152° |
| 2026-05-07 13:25 | 32.81926 | 118.98901 | 32751 ft | 513 kts | 152° |
| 2026-05-07 13:25 | 32.79029 | 119.01305 | 32486 ft | 510 kts | 152° |
| 2026-05-07 13:25 | 32.76102 | 119.03735 | 32216 ft | 508 kts | 152° |
| 2026-05-07 13:26 | 32.73233 | 119.06119 | 31952 ft | 505 kts | 151° |
| 2026-05-07 13:26 | 32.70365 | 119.08495 | 31690 ft | 506 kts | 152° |
| 2026-05-07 13:26 | 32.67456 | 119.10905 | 31423 ft | 506 kts | 152° |
| 2026-05-07 13:26 | 32.64574 | 119.13284 | 31160 ft | 506 kts | 152° |
| 2026-05-07 13:27 | 32.61693 | 119.15668 | 30892 ft | 503 kts | 152° |
| 2026-05-07 13:27 | 32.58831 | 119.18035 | 30631 ft | 501 kts | 152° |
| 2026-05-07 13:27 | 32.55988 | 119.20381 | 30369 ft | 499 kts | 151° |
| 2026-05-07 13:27 | 32.53170 | 119.22705 | 30109 ft | 498 kts | 152° |
| 2026-05-07 13:28 | 32.50313 | 119.25063 | 29841 ft | 494 kts | 151° |
| 2026-05-07 13:28 | 32.47503 | 119.27378 | 29582 ft | 494 kts | 151° |
| 2026-05-07 13:28 | 32.44697 | 119.29688 | 29321 ft | 491 kts | 151° |
| 2026-05-07 13:28 | 32.41919 | 119.31973 | 29065 ft | 488 kts | 151° |
| 2026-05-07 13:29 | 32.39129 | 119.34266 | 28813 ft | 487 kts | 152° |
| 2026-05-07 13:29 | 32.36362 | 119.36537 | 28563 ft | 484 kts | 152° |
| 2026-05-07 13:29 | 32.33577 | 119.38820 | 28306 ft | 482 kts | 151° |
| 2026-05-07 13:29 | 32.30835 | 119.41066 | 28057 ft | 482 kts | 151° |
| 2026-05-07 13:30 | 32.28077 | 119.43327 | 27803 ft | 480 kts | 151° |
| 2026-05-07 13:30 | 32.25343 | 119.45567 | 27555 ft | 478 kts | 151° |
| 2026-05-07 13:30 | 32.22637 | 119.47778 | 27311 ft | 477 kts | 151° |
| 2026-05-07 13:30 | 32.19906 | 119.50012 | 27066 ft | 475 kts | 151° |
| 2026-05-07 13:31 | 32.17213 | 119.52213 | 26746 ft | 473 kts | 151° |
| 2026-05-07 13:31 | 32.14490 | 119.54436 | 26376 ft | 471 kts | 151° |
| 2026-05-07 13:31 | 32.11829 | 119.56609 | 25974 ft | 468 kts | 151° |
| 2026-05-07 13:31 | 32.09170 | 119.58781 | 25573 ft | 465 kts | 151° |
| 2026-05-07 13:32 | 32.06515 | 119.60944 | 25153 ft | 462 kts | 150° |
| 2026-05-07 13:32 | 32.03901 | 119.63075 | 24768 ft | 458 kts | 151° |
| 2026-05-07 13:32 | 32.01272 | 119.65212 | 24337 ft | 456 kts | 151° |
| 2026-05-07 13:32 | 31.98684 | 119.67314 | 23913 ft | 453 kts | 151° |
| 2026-05-07 13:33 | 31.96100 | 119.69469 | 23509 ft | 453 kts | 147° |
| 2026-05-07 13:33 | 31.93795 | 119.71957 | 23112 ft | 456 kts | 137° |
| 2026-05-07 13:33 | 31.91795 | 119.74880 | 22719 ft | 457 kts | 129° |
| 2026-05-07 13:33 | 31.90019 | 119.77940 | 22357 ft | 455 kts | 127° |
| 2026-05-07 13:34 | 31.88270 | 119.81055 | 21976 ft | 452 kts | 127° |
| 2026-05-07 13:34 | 31.84836 | 119.87143 | 21321 ft | 444 kts | 127° |
| 2026-05-07 13:34 | 31.83121 | 119.90146 | 21003 ft | 439 kts | 127° |
| 2026-05-07 13:35 | 31.81423 | 119.93105 | 20666 ft | 436 kts | 127° |
| 2026-05-07 13:35 | 31.79745 | 119.96020 | 20327 ft | 433 kts | 127° |
| 2026-05-07 13:35 | 31.78054 | 119.98950 | 19956 ft | 430 kts | 127° |
| 2026-05-07 13:35 | 31.76385 | 120.01839 | 19610 ft | 426 kts | 127° |
| 2026-05-07 13:36 | 31.74741 | 120.04684 | 19273 ft | 423 kts | 127° |
| 2026-05-07 13:36 | 31.73091 | 120.07536 | 18935 ft | 420 kts | 127° |
| 2026-05-07 13:36 | 31.71462 | 120.10354 | 18595 ft | 417 kts | 127° |
| 2026-05-07 13:36 | 31.69849 | 120.13139 | 18263 ft | 414 kts | 127° |
| 2026-05-07 13:37 | 31.68243 | 120.15912 | 17919 ft | 411 kts | 127° |
| 2026-05-07 13:37 | 31.66641 | 120.18674 | 17568 ft | 408 kts | 127° |
| 2026-05-07 13:37 | 31.65051 | 120.21410 | 17221 ft | 405 kts | 127° |
| 2026-05-07 13:37 | 31.63470 | 120.24134 | 16867 ft | 402 kts | 127° |
| 2026-05-07 13:38 | 31.61888 | 120.26853 | 16511 ft | 400 kts | 127° |
| 2026-05-07 13:38 | 31.60345 | 120.29512 | 16139 ft | 398 kts | 125° |
| 2026-05-07 13:38 | 31.58953 | 120.32346 | 15762 ft | 398 kts | 118° |
| 2026-05-07 13:38 | 31.57875 | 120.35294 | 15393 ft | 397 kts | 111° |
| 2026-05-07 13:39 | 31.56943 | 120.38355 | 15015 ft | 396 kts | 110° |
| 2026-05-07 13:39 | 31.56053 | 120.41401 | 14634 ft | 394 kts | 109° |
| 2026-05-07 13:39 | 31.55182 | 120.44391 | 14253 ft | 392 kts | 109° |
| 2026-05-07 13:39 | 31.54288 | 120.47428 | 13869 ft | 390 kts | 109° |
| 2026-05-07 13:40 | 31.53411 | 120.50385 | 13494 ft | 388 kts | 109° |
| 2026-05-07 13:40 | 31.52526 | 120.53359 | 13113 ft | 387 kts | 109° |
| 2026-05-07 13:40 | 31.51640 | 120.56325 | 12741 ft | 384 kts | 109° |
| 2026-05-07 13:40 | 31.50753 | 120.59291 | 12370 ft | 382 kts | 109° |
| 2026-05-07 13:41 | 31.49882 | 120.62195 | 12002 ft | 380 kts | 109° |
| 2026-05-07 13:41 | 31.49008 | 120.65105 | 11630 ft | 377 kts | 109° |
| 2026-05-07 13:41 | 31.48147 | 120.67973 | 11273 ft | 374 kts | 109° |
| 2026-05-07 13:41 | 31.47288 | 120.70827 | 10909 ft | 372 kts | 109° |
| 2026-05-07 13:42 | 31.46424 | 120.73696 | 10512 ft | 370 kts | 109° |
| 2026-05-07 13:42 | 31.45575 | 120.76510 | 10261 ft | 363 kts | 109° |
| 2026-05-07 13:42 | 31.44750 | 120.79248 | 10131 ft | 353 kts | 109° |
| 2026-05-07 13:42 | 31.43949 | 120.81905 | 10082 ft | 341 kts | 109° |
| 2026-05-07 13:43 | 31.43178 | 120.84462 | 10043 ft | 330 kts | 109° |
| 2026-05-07 13:43 | 31.42413 | 120.86990 | 9887 ft | 323 kts | 109° |
| 2026-05-07 13:43 | 31.41671 | 120.89440 | 9671 ft | 319 kts | 109° |
| 2026-05-07 13:43 | 31.40937 | 120.91866 | 9456 ft | 315 kts | 109° |
| 2026-05-07 13:44 | 31.40211 | 120.94260 | 9237 ft | 311 kts | 108° |
| 2026-05-07 13:44 | 31.39492 | 120.96632 | 9036 ft | 307 kts | 108° |
| 2026-05-07 13:44 | 31.38788 | 120.98968 | 8824 ft | 303 kts | 108° |
| 2026-05-07 13:44 | 31.38092 | 121.01273 | 8589 ft | 301 kts | 108° |
| 2026-05-07 13:45 | 31.37405 | 121.03554 | 8342 ft | 299 kts | 108° |
| 2026-05-07 13:45 | 31.36713 | 121.05846 | 8080 ft | 297 kts | 108° |
| 2026-05-07 13:45 | 31.36026 | 121.08121 | 7836 ft | 295 kts | 108° |
| 2026-05-07 13:45 | 31.35234 | 121.10329 | 7555 ft | 295 kts | 123° |
| 2026-05-07 13:46 | 31.33762 | 121.11955 | 7282 ft | 293 kts | 151° |
| 2026-05-07 13:46 | 31.31956 | 121.13013 | 7086 ft | 289 kts | 155° |
| 2026-05-07 13:46 | 31.30126 | 121.14032 | 7002 ft | 289 kts | 155° |
| 2026-05-07 13:46 | 31.28319 | 121.15054 | 6950 ft | 288 kts | 154° |
| 2026-05-07 13:47 | 31.26540 | 121.16080 | 6768 ft | 284 kts | 154° |
| 2026-05-07 13:47 | 31.24773 | 121.17111 | 6607 ft | 280 kts | 153° |
| 2026-05-07 13:47 | 31.23051 | 121.18121 | 6448 ft | 275 kts | 153° |
| 2026-05-07 13:47 | 31.21319 | 121.19096 | 6274 ft | 271 kts | 160° |
| 2026-05-07 13:48 | 31.19487 | 121.19528 | 6106 ft | 266 kts | 175° |
| 2026-05-07 13:48 | 31.17662 | 121.19666 | 5952 ft | 262 kts | 178° |
| 2026-05-07 13:48 | 31.15848 | 121.19768 | 5795 ft | 259 kts | 178° |
| 2026-05-07 13:48 | 31.14060 | 121.19873 | 5625 ft | 255 kts | 177° |
| 2026-05-07 13:49 | 31.12289 | 121.19988 | 5456 ft | 251 kts | 177° |
| 2026-05-07 13:49 | 31.10558 | 121.20109 | 5281 ft | 248 kts | 176° |
| 2026-05-07 13:49 | 31.08847 | 121.20232 | 5113 ft | 244 kts | 176° |
| 2026-05-07 13:49 | 31.07164 | 121.20354 | 4941 ft | 240 kts | 176° |
| 2026-05-07 13:50 | 31.05502 | 121.20476 | 4763 ft | 237 kts | 176° |
| 2026-05-07 13:50 | 31.03862 | 121.20601 | 4567 ft | 236 kts | 173° |
| 2026-05-07 13:50 | 31.02336 | 121.21211 | 4315 ft | 230 kts | 135° |
| 2026-05-07 13:50 | 31.01476 | 121.22705 | 4062 ft | 220 kts | 99° |
| 2026-05-07 13:51 | 31.01296 | 121.24435 | 3845 ft | 215 kts | 85° |
| 2026-05-07 13:51 | 31.01342 | 121.26172 | 3647 ft | 212 kts | 81° |
| 2026-05-07 13:51 | 31.01437 | 121.27879 | 3459 ft | 210 kts | 80° |
| 2026-05-07 13:51 | 31.01535 | 121.29549 | 3284 ft | 208 kts | 80° |
| 2026-05-07 13:52 | 31.01630 | 121.31213 | 3134 ft | 204 kts | 80° |
| 2026-05-07 13:52 | 31.01920 | 121.32794 | 2958 ft | 193 kts | 53° |
| 2026-05-07 13:52 | 31.02867 | 121.33777 | 2776 ft | 184 kts | 24° |
| 2026-05-07 13:52 | 31.04080 | 121.34211 | 2581 ft | 180 kts | 9° |
| 2026-05-07 13:53 | 31.05314 | 121.34335 | 2393 ft | 177 kts | 4° |
| 2026-05-07 13:53 | 31.06538 | 121.34333 | 2208 ft | 174 kts | 1° |
| 2026-05-07 13:53 | 31.07738 | 121.34281 | 2021 ft | 169 kts | 0° |
| 2026-05-07 13:53 | 31.08889 | 121.34217 | 1873 ft | 164 kts | 1° |
| 2026-05-07 13:54 | 31.10024 | 121.34153 | 1646 ft | 157 kts | 1° |
| 2026-05-07 13:54 | 31.11079 | 121.34094 | 1442 ft | 148 kts | 1° |
| 2026-05-07 13:54 | 31.12094 | 121.34039 | 1240 ft | 140 kts | 1° |
| 2026-05-07 13:54 | 31.13039 | 121.33989 | 1057 ft | 132 kts | 2° |
| 2026-05-07 13:55 | 31.13949 | 121.33944 | 896 ft | 131 kts | 1° |
| 2026-05-07 13:55 | 31.14859 | 121.33884 | 721 ft | 129 kts | 0° |
| 2026-05-07 13:55 | 31.15762 | 121.33796 | 708 ft | 133 kts | 5° |
| 2026-05-07 13:55 | 31.16690 | 121.33791 | 419 ft | 131 kts | 0° |
| 2026-05-07 13:56 | 31.17590 | 121.33725 | 219 ft | 127 kts | 1° |
| 2026-05-07 13:56 | 31.18482 | 121.33686 | 65 ft | 127 kts | 357° |
| 2026-05-07 13:56 | 31.19390 | 121.33609 | 38 ft | 136 kts | 357° |
| 2026-05-07 13:56 | 31.20121 | 121.33611 | 38 ft | 60 kts | 358° |
| 2026-05-07 13:57 | 31.20363 | 121.33605 | 38 ft | 21 kts | 354° |
| 2026-05-07 13:57 | 31.20511 | 121.33579 | 39 ft | 21 kts | 345° |
| 2026-05-07 13:57 | 31.20656 | 121.33514 | 38 ft | 22 kts | 334° |
| 2026-05-07 13:57 | 31.20794 | 121.33416 | 37 ft | 23 kts | 330° |
| 2026-05-07 13:58 | 31.20926 | 121.33376 | 36 ft | 12 kts | 356° |
| 2026-05-07 13:58 | 31.21028 | 121.33370 | 35 ft | 16 kts | 356° |
| 2026-05-07 13:58 | 31.21130 | 121.33360 | 35 ft | 12 kts | 338° |
| 2026-05-07 13:58 | 31.21164 | 121.33263 | 35 ft | 14 kts | 266° |
| 2026-05-07 13:59 | 31.21159 | 121.33131 | 34 ft | 17 kts | 267° |
| 2026-05-07 13:59 | 31.21148 | 121.33017 | 35 ft | 8 kts | 244° |
| 2026-05-07 13:59 | 31.21089 | 121.32986 | 35 ft | 11 kts | 186° |
| 2026-05-07 13:59 | 31.20998 | 121.32988 | 36 ft | 14 kts | 176° |
| 2026-05-07 14:00 | 31.20888 | 121.32995 | 37 ft | 16 kts | 177° |
| 2026-05-07 14:00 | 31.20764 | 121.33001 | 39 ft | 18 kts | 177° |
| 2026-05-07 14:00 | 31.20632 | 121.33008 | 40 ft | 19 kts | 178° |
| 2026-05-07 14:00 | 31.20489 | 121.33016 | 42 ft | 21 kts | 176° |
| 2026-05-07 14:01 | 31.20357 | 121.33024 | 41 ft | 15 kts | 174° |
| 2026-05-07 14:01 | 31.20235 | 121.33029 | 40 ft | 19 kts | 177° |
| 2026-05-07 14:01 | 31.20126 | 121.33034 | 39 ft | 12 kts | 179° |
| 2026-05-07 14:01 | 31.20073 | 121.32986 | 39 ft | 11 kts | 252° |
| 2026-05-07 14:02 | 31.20065 | 121.32894 | 38 ft | 9 kts | 266° |
| 2026-05-07 14:02 | 31.20062 | 121.32821 | 37 ft | 8 kts | 267° |
| 2026-05-07 14:02 | 31.20060 | 121.32766 | 37 ft | 6 kts | 268° |
| 2026-05-07 14:02 | 31.20059 | 121.32703 | 37 ft | 6 kts | 269° |
| 2026-05-07 14:03 | 31.20052 | 121.32668 | 38 ft | 3 kts | 228° |
| 2026-05-07 14:03 | 31.20019 | 121.32654 | 38 ft | 6 kts | 192° |
| 2026-05-07 14:03 | 31.19980 | 121.32653 | 37 ft | 5 kts | 179° |
| 2026-05-07 14:03 | 31.19966 | 121.32653 | 37 ft | 0 kts | 178° |